createdAt,value
2019-01-20T00:01:39.101Z,147.50
2019-01-20T00:04:10.728Z,139.70
2019-01-20T00:06:42.369Z,145.43
2019-01-20T00:09:14.005Z,121.13
2019-01-20T00:11:45.641Z,130.23
2019-01-20T00:14:17.282Z,150.63
2019-01-20T00:16:48.912Z,151.83
2019-01-20T00:19:20.566Z,148.60
2019-01-20T00:21:52.324Z,137.33
2019-01-20T00:24:24.044Z,141.27
2019-01-20T00:26:55.685Z,146.43
2019-01-20T00:29:27.303Z,147.37
2019-01-20T00:31:58.940Z,138.40
2019-01-20T00:34:30.561Z,141.30
2019-01-20T00:37:02.221Z,119.93
2019-01-20T00:39:33.833Z,123.83
2019-01-20T00:42:05.469Z,144.70
2019-01-20T00:44:37.096Z,134.77
2019-01-20T00:47:08.737Z,113.37
2019-01-20T00:49:40.362Z,143.90
2019-01-20T00:52:12.007Z,150.93
2019-01-20T00:54:43.643Z,140.43
2019-01-20T00:57:15.274Z,128.33
2019-01-20T00:59:46.896Z,156.83
2019-01-20T01:02:18.549Z,140.30
2019-01-20T01:04:50.196Z,130.57
2019-01-20T01:07:21.837Z,138.03
2019-01-20T01:09:53.474Z,128.80
2019-01-20T01:12:25.510Z,135.50
2019-01-20T01:14:57.153Z,134.83
2019-01-20T01:17:28.796Z,134.80
2019-01-20T01:20:00.423Z,134.77
2019-01-20T01:22:32.101Z,152.50
2019-01-20T01:25:04.916Z,135.67
2019-01-20T01:27:36.618Z,133.80
2019-01-20T01:30:17.064Z,143.10
2019-01-20T01:32:48.815Z,148.57
2019-01-20T01:35:20.562Z,139.13
2019-01-20T01:37:52.205Z,148.00
2019-01-20T01:40:23.834Z,152.10
2019-01-20T01:42:55.485Z,144.53
2019-01-20T01:45:27.110Z,131.33
2019-01-20T01:47:58.778Z,140.73
2019-01-20T01:50:30.409Z,148.23
2019-01-20T01:53:02.069Z,116.83
2019-01-20T01:55:33.709Z,169.00
2019-01-20T01:58:05.352Z,131.50
2019-01-20T02:00:37.094Z,161.40
2019-01-20T02:03:08.756Z,133.73
2019-01-20T02:05:40.481Z,144.30
2019-01-20T02:08:12.143Z,153.80
2019-01-20T02:10:43.762Z,169.17
2019-01-20T02:13:15.401Z,155.20
2019-01-20T02:15:47.145Z,123.23
2019-01-20T02:18:18.789Z,145.43
2019-01-20T02:20:50.497Z,158.63
2019-01-20T02:23:22.136Z,147.83
2019-01-20T02:25:53.781Z,150.93
2019-01-20T02:28:25.439Z,162.23
2019-01-20T02:30:57.077Z,137.53
2019-01-20T02:33:28.730Z,162.67
2019-01-20T02:36:00.349Z,144.87
2019-01-20T02:38:32.000Z,149.87
2019-01-20T02:41:03.635Z,153.47
2019-01-20T02:43:35.321Z,135.03
2019-01-20T02:46:06.953Z,126.33
2019-01-20T02:48:38.602Z,157.07
2019-01-20T02:51:10.248Z,142.80
2019-01-20T02:53:41.894Z,161.27
2019-01-20T02:56:13.627Z,166.43
2019-01-20T02:58:45.274Z,177.70
2019-01-20T03:01:16.909Z,141.47
2019-01-20T03:03:48.596Z,147.17
2019-01-20T03:06:20.325Z,159.80
2019-01-20T03:08:52.083Z,173.00
2019-01-20T03:11:23.720Z,181.10
2019-01-20T03:13:55.380Z,145.60
2019-01-20T03:16:27.005Z,141.33
2019-01-20T03:18:58.645Z,152.93
2019-01-20T03:21:30.288Z,149.77
2019-01-20T03:24:02.032Z,152.60
2019-01-20T03:26:33.765Z,134.57
2019-01-20T03:29:05.449Z,159.20
2019-01-20T03:31:37.185Z,139.93
2019-01-20T03:34:08.839Z,153.23
2019-01-20T03:36:40.705Z,151.97
2019-01-20T03:39:12.356Z,166.10
2019-01-20T03:41:43.990Z,152.43
2019-01-20T03:44:15.629Z,145.67
2019-01-20T03:46:48.372Z,143.07
2019-01-20T03:49:20.202Z,140.80
2019-01-20T03:51:51.823Z,125.43
2019-01-20T03:54:23.478Z,154.10
2019-01-20T03:56:55.095Z,157.63
2019-01-20T03:59:26.847Z,137.83
2019-01-20T04:01:58.482Z,149.00
2019-01-20T04:04:30.141Z,162.53
2019-01-20T04:07:01.769Z,147.40
2019-01-20T04:09:33.403Z,165.23
2019-01-20T04:12:05.141Z,169.57
2019-01-20T04:14:36.798Z,129.87
2019-01-20T04:17:08.412Z,137.10
2019-01-20T04:19:40.153Z,153.53
2019-01-20T04:22:11.805Z,154.33
2019-01-20T04:24:43.492Z,164.30
2019-01-20T04:27:15.126Z,166.07
2019-01-20T04:29:46.775Z,175.73
2019-01-20T04:32:18.413Z,161.87
2019-01-20T04:34:50.084Z,177.90
2019-01-20T04:37:21.702Z,152.90
2019-01-20T04:39:53.341Z,164.73
2019-01-20T04:42:29.161Z,140.17
2019-01-20T04:44:58.508Z,148.33
2019-01-20T04:47:30.150Z,150.10
2019-01-20T04:50:02.017Z,151.00
2019-01-20T04:52:33.679Z,155.70
2019-01-20T04:55:06.927Z,156.37
2019-01-20T04:57:38.742Z,134.70
2019-01-20T05:00:13.325Z,162.63
2019-01-20T05:02:44.968Z,173.13
2019-01-20T05:05:17.383Z,167.87
2019-01-20T05:07:49.102Z,161.23
2019-01-20T05:10:21.073Z,160.93
2019-01-20T05:12:52.718Z,142.93
2019-01-20T05:15:24.354Z,158.10
2019-01-20T05:17:55.998Z,152.17
2019-01-20T05:20:27.626Z,158.47
2019-01-20T05:22:59.280Z,167.70
2019-01-20T05:25:30.928Z,161.30
2019-01-20T05:28:02.869Z,120.67
2019-01-20T05:30:34.505Z,174.13
2019-01-20T05:33:06.441Z,152.77
2019-01-20T05:35:38.082Z,165.63
2019-01-20T05:38:09.719Z,169.00
2019-01-20T05:40:41.366Z,164.70
2019-01-20T05:43:12.992Z,154.40
2019-01-20T05:45:44.621Z,147.93
2019-01-20T05:48:16.494Z,143.40
2019-01-20T05:50:48.145Z,140.70
2019-01-20T05:53:19.765Z,135.67
2019-01-20T05:55:51.420Z,162.23
2019-01-20T05:58:23.042Z,163.30
2019-01-20T06:00:54.695Z,170.33
2019-01-20T06:03:26.325Z,152.07
2019-01-20T06:05:57.967Z,189.43
2019-01-20T06:08:29.589Z,180.13
2019-01-20T06:11:01.239Z,164.90
2019-01-20T06:13:32.871Z,153.00
2019-01-20T06:16:04.620Z,163.10
2019-01-20T06:18:36.274Z,168.80
2019-01-20T06:21:07.933Z,151.67
2019-01-20T06:23:39.606Z,133.90
2019-01-20T06:26:11.245Z,175.90
2019-01-20T06:28:42.870Z,155.70
2019-01-20T06:31:14.493Z,168.03
2019-01-20T06:33:46.128Z,150.63
2019-01-20T06:36:17.767Z,169.30
2019-01-20T06:38:49.416Z,158.10
2019-01-20T06:41:21.065Z,137.97
2019-01-20T06:43:52.692Z,160.70
2019-01-20T06:46:24.325Z,156.57
2019-01-20T06:48:56.052Z,164.07
2019-01-20T06:51:27.690Z,173.17
2019-01-20T06:53:59.318Z,169.70
2019-01-20T06:56:30.958Z,176.00
2019-01-20T06:59:02.702Z,157.20
2019-01-20T07:01:34.397Z,180.00
2019-01-20T07:04:06.031Z,148.93
2019-01-20T07:06:37.683Z,172.03
2019-01-20T07:09:09.307Z,185.73
2019-01-20T07:11:40.948Z,173.87
2019-01-20T07:14:12.592Z,170.47
2019-01-20T07:16:44.257Z,174.73
2019-01-20T07:19:15.886Z,150.83
2019-01-20T07:21:47.549Z,150.63
2019-01-20T07:24:19.220Z,182.03
2019-01-20T07:26:50.890Z,167.20
2019-01-20T07:29:22.541Z,179.50
2019-01-20T07:31:54.210Z,155.63
2019-01-20T07:34:27.459Z,173.83
2019-01-20T07:36:59.281Z,157.00
2019-01-20T07:39:31.030Z,179.17
2019-01-20T07:42:02.889Z,173.73
2019-01-20T07:44:34.526Z,170.80
2019-01-20T07:47:06.181Z,185.40
2019-01-20T07:49:37.809Z,156.83
2019-01-20T07:52:09.460Z,148.87
2019-01-20T07:54:41.091Z,170.83
2019-01-20T07:57:12.737Z,147.97
2019-01-20T07:59:44.368Z,134.43
2019-01-20T08:02:16.005Z,115.70
2019-01-20T08:04:47.635Z,105.30
2019-01-20T08:07:19.285Z,82.47
2019-01-20T08:09:50.951Z,77.53
2019-01-20T08:12:23.538Z,61.53
2019-01-20T08:14:55.467Z,70.70
2019-01-20T08:17:27.109Z,61.90
2019-01-20T08:19:58.769Z,60.80
2019-01-20T08:22:30.393Z,62.07
2019-01-20T08:25:02.126Z,64.23
2019-01-20T08:27:34.296Z,59.13
2019-01-20T08:30:08.517Z,61.33
2019-01-20T08:32:41.943Z,49.30
2019-01-20T08:35:21.038Z,67.87
2019-01-20T08:38:06.617Z,59.87
2019-01-20T08:40:38.246Z,55.77
2019-01-20T08:43:09.918Z,59.50
2019-01-20T08:46:44.658Z,53.77
2019-01-20T08:49:16.409Z,58.43
2019-01-20T08:51:48.181Z,59.67
2019-01-20T08:55:15.690Z,52.27
2019-01-20T08:57:47.393Z,55.70
2019-01-20T09:00:19.213Z,59.57
2019-01-20T09:02:50.826Z,56.47
2019-01-20T09:05:28.446Z,63.20
2019-01-20T09:08:00.168Z,56.03
2019-01-20T09:10:32.196Z,65.20
2019-01-20T09:13:07.549Z,60.70
2019-01-20T09:15:39.201Z,57.83
2019-01-20T09:18:10.848Z,52.97
2019-01-20T09:20:42.580Z,56.97
2019-01-20T09:23:14.335Z,60.03
2019-01-20T09:25:45.986Z,57.63
2019-01-20T09:28:17.619Z,56.27
2019-01-20T09:30:49.275Z,57.13
2019-01-20T09:33:24.653Z,58.33
2019-01-20T09:35:55.490Z,60.70
2019-01-20T09:38:27.118Z,52.07
2019-01-20T09:40:58.753Z,66.57
2019-01-20T09:43:30.391Z,48.20
2019-01-20T09:46:02.129Z,56.87
2019-01-20T09:48:33.740Z,60.10
2019-01-20T09:51:05.502Z,55.63
2019-01-20T09:53:37.132Z,64.07
2019-01-20T09:56:08.900Z,53.77
2019-01-20T09:58:40.516Z,56.60
2019-01-20T10:01:12.155Z,55.70
2019-01-20T10:03:43.794Z,58.60
2019-01-20T10:06:15.432Z,56.53
2019-01-20T10:08:47.073Z,58.37
2019-01-20T10:11:18.702Z,62.37
2019-01-20T10:13:54.797Z,54.80
2019-01-20T10:16:23.854Z,53.23
2019-01-20T10:18:55.486Z,53.73
2019-01-20T10:21:27.129Z,53.43
2019-01-20T10:23:58.771Z,51.10
2019-01-20T10:26:30.395Z,54.20
2019-01-20T10:29:02.025Z,59.70
2019-01-20T10:31:33.644Z,55.77
2019-01-20T10:34:05.275Z,58.93
2019-01-20T10:36:36.925Z,53.67
2019-01-20T10:39:10.617Z,53.77
2019-01-20T10:41:42.250Z,53.67
2019-01-20T10:44:13.869Z,59.60
2019-01-20T10:46:45.508Z,53.53
2019-01-20T10:49:17.130Z,51.97
2019-01-20T10:51:48.776Z,56.87
2019-01-20T10:54:20.389Z,55.67
2019-01-20T10:56:52.013Z,52.73
2019-01-20T10:59:23.624Z,54.97
2019-01-20T11:01:55.357Z,55.30
2019-01-20T11:04:26.970Z,50.77
2019-01-20T11:06:58.606Z,54.03
2019-01-20T11:09:30.225Z,53.97
2019-01-20T11:12:01.960Z,52.10
2019-01-20T11:14:33.617Z,49.37
2019-01-20T11:17:05.257Z,49.17
2019-01-20T11:19:36.888Z,44.43
2019-01-20T11:22:08.529Z,47.73
2019-01-20T11:24:40.165Z,49.47
2019-01-20T11:27:11.796Z,49.40
2019-01-20T11:29:43.415Z,49.47
2019-01-20T11:32:15.046Z,51.60
2019-01-20T11:34:46.669Z,48.60
2019-01-20T11:37:18.322Z,40.30
2019-01-20T11:39:49.962Z,49.27
2019-01-20T11:42:21.597Z,45.97
2019-01-20T11:44:53.233Z,44.47
2019-01-20T11:47:24.902Z,47.37
2019-01-20T11:49:56.520Z,39.57
2019-01-20T11:52:28.161Z,49.57
2019-01-20T11:54:59.812Z,44.20
2019-01-20T11:57:31.441Z,47.13
2019-01-20T12:00:04.954Z,43.37
2019-01-20T12:02:36.589Z,49.13
2019-01-20T12:05:09.541Z,37.20
2019-01-20T12:07:41.160Z,46.10
2019-01-20T12:10:13.053Z,42.47
2019-01-20T12:12:47.948Z,43.03
2019-01-20T12:15:19.574Z,35.17
2019-01-20T12:17:51.218Z,43.00
2019-01-20T12:20:22.952Z,39.23
2019-01-20T12:22:54.681Z,37.03
2019-01-20T12:25:26.358Z,42.20
2019-01-20T12:27:57.993Z,44.53
2019-01-20T12:30:31.519Z,37.03
2019-01-20T12:33:03.634Z,46.97
2019-01-20T12:35:35.362Z,47.10
2019-01-20T12:38:07.188Z,39.13
2019-01-20T12:40:46.288Z,48.83
2019-01-20T12:43:17.934Z,40.43
2019-01-20T12:45:49.658Z,40.30
2019-01-20T12:48:21.306Z,37.87
2019-01-20T12:50:52.926Z,38.33
2019-01-20T12:53:24.564Z,35.10
2019-01-20T12:55:56.193Z,47.70
2019-01-20T12:58:27.837Z,44.43
2019-01-20T13:00:59.600Z,44.37
2019-01-20T13:03:31.239Z,35.17
2019-01-20T13:06:03.170Z,34.13
2019-01-20T13:08:34.838Z,40.77
2019-01-20T13:11:06.496Z,41.57
2019-01-20T13:13:38.138Z,33.77
2019-01-20T13:16:09.875Z,38.60
2019-01-20T13:18:41.537Z,39.57
2019-01-20T13:21:13.672Z,44.37
2019-01-20T13:23:46.261Z,35.93
2019-01-20T13:26:17.905Z,33.60
2019-01-20T13:28:49.564Z,43.80
2019-01-20T13:31:21.189Z,52.47
2019-01-20T13:33:52.826Z,50.70
2019-01-20T13:36:24.444Z,36.07
2019-01-20T13:38:56.089Z,46.87
2019-01-20T13:41:29.485Z,49.23
2019-01-20T13:44:01.217Z,33.50
2019-01-20T13:46:32.858Z,32.30
2019-01-20T13:49:04.484Z,40.37
2019-01-20T13:51:36.121Z,35.83
2019-01-20T13:54:07.765Z,37.30
2019-01-20T13:56:39.396Z,33.57
2019-01-20T13:59:11.125Z,46.47
2019-01-20T14:01:42.758Z,26.87
2019-01-20T14:04:14.469Z,40.73
2019-01-20T14:06:46.108Z,39.63
2019-01-20T14:09:17.748Z,51.67
2019-01-20T14:11:49.391Z,40.87
2019-01-20T14:14:21.036Z,49.77
2019-01-20T14:16:52.668Z,34.57
2019-01-20T14:19:24.319Z,53.30
2019-01-20T14:21:55.946Z,39.37
2019-01-20T14:24:27.600Z,41.70
2019-01-20T14:26:59.325Z,58.80
2019-01-20T14:29:30.965Z,53.70
2019-01-20T14:32:02.853Z,43.93
2019-01-20T14:34:34.546Z,39.97
2019-01-20T14:37:06.161Z,40.90
2019-01-20T14:39:37.801Z,46.07
2019-01-20T14:42:09.416Z,37.10
2019-01-20T14:44:41.045Z,43.90
2019-01-20T14:47:12.681Z,44.37
2019-01-20T14:49:44.408Z,48.13
2019-01-20T14:52:16.052Z,53.57
2019-01-20T14:54:47.692Z,52.93
2019-01-20T14:57:19.331Z,59.00
2019-01-20T14:59:50.977Z,50.27
2019-01-20T15:02:22.612Z,46.57
2019-01-20T15:04:54.384Z,50.27
2019-01-20T15:07:26.025Z,66.73
2019-01-20T15:09:57.674Z,63.37
2019-01-20T15:12:29.348Z,63.97
2019-01-20T15:15:01.049Z,80.83
2019-01-20T15:17:32.688Z,60.13
2019-01-20T15:20:05.833Z,60.27
2019-01-20T15:22:37.463Z,69.10
2019-01-20T15:25:10.198Z,74.53
2019-01-20T15:27:42.066Z,64.20
2019-01-20T15:30:17.804Z,63.40
2019-01-20T15:32:50.754Z,51.47
2019-01-20T15:35:22.399Z,56.70
2019-01-20T15:37:54.150Z,74.17
2019-01-20T15:40:26.132Z,95.50
2019-01-20T15:42:57.761Z,103.57
2019-01-20T15:45:29.621Z,132.33
2019-01-20T15:48:01.242Z,117.33
2019-01-20T15:50:32.915Z,113.60
2019-01-20T15:53:04.543Z,91.47
2019-01-20T15:55:36.341Z,94.77
2019-01-20T15:58:08.089Z,99.33
2019-01-20T16:00:39.744Z,110.60
2019-01-20T16:03:11.476Z,107.57
2019-01-20T16:05:43.134Z,90.57
2019-01-20T16:08:14.786Z,94.17
2019-01-20T16:10:46.429Z,83.33
2019-01-20T16:13:18.061Z,84.50
2019-01-20T16:15:49.704Z,89.30
2019-01-20T16:18:21.333Z,99.90
2019-01-20T16:20:52.974Z,95.83
2019-01-20T16:23:24.601Z,96.53
2019-01-20T16:25:56.244Z,103.93
2019-01-20T16:28:27.876Z,98.93
2019-01-20T16:30:59.533Z,110.87
2019-01-20T16:33:31.174Z,100.73
2019-01-20T16:36:03.120Z,85.20
2019-01-20T16:38:34.758Z,99.10
2019-01-20T16:41:06.410Z,100.87
2019-01-20T16:43:38.094Z,84.50
2019-01-20T16:46:09.727Z,92.20
2019-01-20T16:48:41.378Z,94.07
2019-01-20T16:51:13.029Z,93.60
2019-01-20T16:53:44.690Z,85.83
2019-01-20T16:56:16.329Z,102.87
2019-01-20T16:58:51.425Z,105.80
2019-01-20T17:01:21.633Z,79.20
2019-01-20T17:03:53.331Z,94.50
2019-01-20T17:06:25.162Z,105.20
2019-01-20T17:08:56.806Z,108.57
2019-01-20T17:11:28.564Z,106.60
2019-01-20T17:14:00.186Z,99.60
2019-01-20T17:16:31.829Z,112.27
2019-01-20T17:19:03.578Z,125.97
2019-01-20T17:21:35.233Z,134.57
2019-01-20T17:24:09.106Z,129.30
2019-01-20T17:26:40.770Z,138.27
2019-01-20T17:29:12.442Z,136.07
2019-01-20T17:31:44.111Z,146.87
2019-01-20T17:34:15.745Z,160.53
2019-01-20T17:36:47.406Z,159.50
2019-01-20T17:39:19.052Z,166.30
2019-01-20T17:41:50.695Z,165.13
2019-01-20T17:44:22.327Z,156.07
2019-01-20T17:46:53.972Z,147.30
2019-01-20T17:49:25.613Z,147.10
2019-01-20T17:51:57.270Z,132.23
2019-01-20T17:54:28.915Z,125.90
2019-01-20T17:57:00.563Z,128.23
2019-01-20T17:59:32.193Z,122.33
2019-01-20T18:02:04.073Z,118.43
2019-01-20T18:04:35.710Z,122.47
2019-01-20T18:07:07.405Z,123.23
2019-01-20T18:09:39.038Z,109.30
2019-01-20T18:12:10.690Z,102.77
2019-01-20T18:14:42.335Z,92.10
2019-01-20T18:17:13.989Z,102.97
2019-01-20T18:19:45.638Z,94.90
2019-01-20T18:22:17.301Z,104.63
2019-01-20T18:24:50.054Z,101.77
2019-01-20T18:27:21.734Z,95.27
2019-01-20T18:29:53.485Z,120.90
2019-01-20T18:32:25.160Z,130.43
2019-01-20T18:34:56.825Z,136.30
2019-01-20T18:37:28.456Z,130.97
2019-01-20T18:40:01.449Z,153.60
2019-01-20T18:42:33.130Z,148.87
2019-01-20T18:45:05.802Z,151.33
2019-01-20T18:47:37.466Z,134.53
2019-01-20T18:50:11.382Z,128.90
2019-01-20T18:52:43.033Z,117.13
2019-01-20T18:55:14.748Z,107.03
2019-01-20T18:57:46.528Z,100.93
2019-01-20T19:00:23.413Z,107.07
2019-01-20T19:02:55.253Z,103.87
2019-01-20T19:05:27.023Z,103.20
2019-01-20T19:07:58.701Z,117.83
2019-01-20T19:10:30.463Z,113.87
2019-01-20T19:13:02.418Z,115.07
2019-01-20T19:15:34.086Z,114.57
2019-01-20T19:18:05.827Z,124.47
2019-01-20T19:20:37.522Z,92.33
2019-01-20T19:23:09.179Z,106.63
2019-01-20T19:25:40.859Z,103.67
2019-01-20T19:28:13.552Z,98.63
2019-01-20T19:30:45.221Z,103.93
2019-01-20T19:33:16.885Z,100.63
2019-01-20T19:35:48.654Z,94.17
2019-01-20T19:38:20.421Z,116.00
2019-01-20T19:40:52.126Z,139.23
2019-01-20T19:43:24.555Z,122.50
2019-01-20T19:45:56.460Z,112.27
2019-01-20T19:48:28.146Z,118.80
2019-01-20T19:51:02.155Z,127.20
2019-01-20T19:53:34.067Z,115.07
2019-01-20T19:56:05.814Z,108.97
2019-01-20T19:58:37.487Z,119.60
2019-01-20T20:01:10.424Z,108.83
2019-01-20T20:03:42.095Z,114.70
2019-01-20T20:06:13.989Z,116.90
2019-01-20T20:08:45.674Z,110.23
2019-01-20T20:11:17.359Z,99.57
2019-01-20T20:13:49.278Z,112.10
2019-01-20T20:16:23.468Z,101.70
2019-01-20T20:18:56.994Z,99.33
2019-01-20T20:21:28.689Z,114.77
2019-01-20T20:24:02.742Z,125.50
2019-01-20T20:26:34.432Z,111.40
2019-01-20T20:29:06.332Z,123.30
2019-01-20T20:31:38.012Z,126.97
2019-01-20T20:34:12.385Z,132.37
2019-01-20T20:36:44.071Z,114.83
2019-01-20T20:39:15.832Z,101.40
2019-01-20T20:41:47.744Z,111.37
2019-01-20T20:44:19.733Z,86.83
2019-01-20T20:46:51.403Z,116.47
2019-01-20T20:49:23.075Z,113.37
2019-01-20T20:51:54.970Z,125.33
2019-01-20T20:54:26.636Z,131.03
2019-01-20T20:56:58.287Z,126.43
2019-01-20T20:59:29.955Z,106.43
2019-01-20T21:02:01.608Z,118.27
2019-01-20T21:04:34.559Z,110.37
2019-01-20T21:07:06.212Z,119.17
2019-01-20T21:09:37.869Z,120.63
2019-01-20T21:12:09.525Z,114.07
2019-01-20T21:14:41.210Z,111.07
2019-01-20T21:17:12.914Z,115.53
2019-01-20T21:19:44.584Z,104.13
2019-01-20T21:22:16.334Z,106.87
2019-01-20T21:24:48.009Z,106.60
2019-01-20T21:27:19.657Z,110.67
2019-01-20T21:29:51.302Z,100.33
2019-01-20T21:32:22.933Z,107.17
2019-01-20T21:34:54.626Z,106.23
2019-01-20T21:37:26.256Z,113.00
2019-01-20T21:39:57.933Z,105.53
2019-01-20T21:42:29.572Z,90.83
2019-01-20T21:45:01.258Z,96.40
2019-01-20T21:47:32.955Z,94.47
2019-01-20T21:50:08.496Z,98.27
2019-01-20T21:52:40.243Z,96.57
2019-01-20T21:55:11.878Z,91.63
2019-01-20T21:57:43.502Z,99.80
2019-01-20T22:00:20.184Z,102.30
2019-01-20T22:02:51.821Z,105.53
2019-01-20T22:05:23.559Z,110.37
2019-01-20T22:07:55.192Z,113.87
2019-01-20T22:10:26.837Z,111.07
2019-01-20T22:12:58.581Z,100.80
2019-01-20T22:15:30.221Z,90.10
2019-01-20T22:18:03.129Z,86.17
2019-01-20T22:20:35.006Z,109.90
2019-01-20T22:23:06.637Z,102.53
2019-01-20T22:25:38.274Z,97.47
2019-01-20T22:28:15.661Z,103.67
2019-01-20T22:30:47.364Z,96.93
2019-01-20T22:33:19.002Z,92.47
2019-01-20T22:35:50.656Z,93.47
2019-01-20T22:38:22.292Z,94.13
2019-01-20T22:40:53.949Z,92.33
2019-01-20T22:43:25.574Z,104.77
2019-01-20T22:45:57.207Z,100.93
2019-01-20T22:48:28.835Z,107.90
2019-01-20T22:51:00.476Z,104.33
2019-01-20T22:53:32.113Z,107.50
2019-01-20T22:56:03.856Z,103.10
2019-01-20T22:58:35.499Z,96.63
2019-01-20T23:01:15.435Z,110.80
2019-01-20T23:03:47.053Z,100.50
2019-01-20T23:06:18.698Z,92.47
2019-01-20T23:08:50.324Z,90.40
2019-01-20T23:11:21.957Z,98.23
2019-01-20T23:13:53.603Z,97.67
2019-01-20T23:16:25.341Z,96.30
2019-01-20T23:18:56.969Z,94.57
2019-01-20T23:21:28.798Z,96.20
2019-01-20T23:24:00.422Z,95.60
2019-01-20T23:26:32.054Z,94.37
2019-01-20T23:29:03.831Z,91.90
2019-01-20T23:31:35.477Z,94.43
2019-01-20T23:34:07.108Z,96.73
2019-01-20T23:36:38.759Z,87.03
2019-01-20T23:39:10.387Z,87.53
2019-01-20T23:41:42.014Z,98.30
2019-01-20T23:44:13.642Z,87.70
2019-01-20T23:46:45.301Z,80.40
2019-01-20T23:49:16.921Z,97.93
2019-01-20T23:51:48.601Z,86.33
2019-01-20T23:54:20.306Z,97.37
2019-01-20T23:56:51.949Z,97.03
2019-01-20T23:59:23.565Z,111.00
